createdAt,value
2022-08-29T00:00:59.952Z,4.40
2022-08-29T00:03:27.803Z,4.20
2022-08-29T00:05:56.771Z,4.00
2022-08-29T00:08:24.548Z,3.13
2022-08-29T00:10:51.689Z,4.13
2022-08-29T00:13:19.774Z,3.97
2022-08-29T00:15:47.392Z,4.23
2022-08-29T00:18:15.535Z,3.93
2022-08-29T00:20:44.008Z,3.47
2022-08-29T00:23:11.919Z,4.40
2022-08-29T00:25:39.071Z,4.40
2022-08-29T00:28:06.286Z,3.57
2022-08-29T00:30:34.349Z,3.30
2022-08-29T00:33:01.235Z,4.00
2022-08-29T00:35:37.442Z,2.70
2022-08-29T00:38:06.984Z,3.50
2022-08-29T00:40:52.004Z,2.80
2022-08-29T00:43:25.380Z,2.83
2022-08-29T00:46:21.700Z,3.20
2022-08-29T00:49:02.806Z,3.80
2022-08-29T00:51:29.874Z,3.20
2022-08-29T00:54:03.479Z,4.57
2022-08-29T00:56:31.406Z,4.10
2022-08-29T00:59:06.683Z,4.20
2022-08-29T01:01:33.777Z,3.17
2022-08-29T01:04:01.202Z,3.57
2022-08-29T01:06:29.006Z,3.20
2022-08-29T01:08:57.589Z,3.13
2022-08-29T01:11:46.402Z,3.90
2022-08-29T01:14:14.218Z,3.03
2022-08-29T01:16:42.023Z,3.20
2022-08-29T01:19:49.420Z,4.30
2022-08-29T01:22:41.849Z,3.20
2022-08-29T01:25:13.839Z,3.83
2022-08-29T01:27:44.680Z,3.40
2022-08-29T01:30:12.304Z,5.27
2022-08-29T01:32:39.230Z,4.17
2022-08-29T01:35:08.483Z,3.77
2022-08-29T01:37:38.533Z,3.70
2022-08-29T01:40:06.901Z,3.67
2022-08-29T01:42:36.731Z,4.03
2022-08-29T01:45:05.401Z,3.07
2022-08-29T01:47:38.760Z,4.63
2022-08-29T01:50:14.582Z,4.33
2022-08-29T01:52:43.250Z,4.57
2022-08-29T01:55:10.638Z,3.23
2022-08-29T01:57:39.478Z,3.70
2022-08-29T02:00:10.347Z,4.60
2022-08-29T02:02:38.351Z,4.03
2022-08-29T02:05:06.480Z,3.70
2022-08-29T02:07:33.426Z,5.40
2022-08-29T02:10:00.569Z,5.67
2022-08-29T02:12:27.523Z,4.30
2022-08-29T02:14:54.493Z,6.60
2022-08-29T02:17:21.650Z,3.97
2022-08-29T02:19:48.582Z,3.50
2022-08-29T02:22:15.816Z,5.07
2022-08-29T02:24:42.965Z,5.37
2022-08-29T02:27:10.465Z,6.17
2022-08-29T02:29:38.465Z,6.50
2022-08-29T02:32:14.168Z,6.57
2022-08-29T02:34:44.529Z,5.50
2022-08-29T02:37:14.421Z,4.93
2022-08-29T02:39:41.366Z,5.60
2022-08-29T02:42:08.322Z,4.33
2022-08-29T02:44:35.273Z,4.70
2022-08-29T02:47:02.350Z,5.93
2022-08-29T02:49:29.360Z,4.90
2022-08-29T02:51:57.445Z,3.40
2022-08-29T02:54:24.380Z,4.40
2022-08-29T02:56:51.375Z,4.33
2022-08-29T02:59:18.375Z,4.03
2022-08-29T03:01:45.568Z,3.60
2022-08-29T03:04:12.628Z,5.23
2022-08-29T03:06:39.538Z,5.80
2022-08-29T03:09:06.488Z,3.33
2022-08-29T03:11:33.363Z,3.03
2022-08-29T03:14:01.432Z,3.27
2022-08-29T03:16:29.480Z,3.53
2022-08-29T03:18:56.620Z,5.07
2022-08-29T03:21:26.409Z,5.53
2022-08-29T03:23:56.184Z,4.03
2022-08-29T03:26:23.671Z,4.13
2022-08-29T03:28:50.825Z,4.17
2022-08-29T03:31:18.075Z,5.33
2022-08-29T03:33:45.014Z,4.87
2022-08-29T03:36:14.746Z,6.37
2022-08-29T03:38:48.299Z,6.03
2022-08-29T03:41:23.840Z,5.90
2022-08-29T03:43:51.070Z,3.40
2022-08-29T03:46:18.023Z,5.57
2022-08-29T03:48:44.985Z,4.83
2022-08-29T03:51:11.876Z,3.57
2022-08-29T03:53:38.802Z,4.80
2022-08-29T03:56:06.135Z,5.20
2022-08-29T03:58:34.203Z,3.43
2022-08-29T04:01:01.642Z,3.23
2022-08-29T04:03:31.054Z,3.17
2022-08-29T04:05:59.104Z,2.67
2022-08-29T04:08:26.177Z,2.60
2022-08-29T04:10:53.029Z,3.33
2022-08-29T04:13:19.905Z,3.10
2022-08-29T04:15:46.961Z,3.63
2022-08-29T04:18:15.664Z,3.23
2022-08-29T04:20:48.451Z,3.43
2022-08-29T04:23:15.865Z,4.33
2022-08-29T04:25:43.601Z,3.60
2022-08-29T04:28:13.622Z,3.67
2022-08-29T04:30:49.915Z,4.43
2022-08-29T04:33:24.243Z,4.00
2022-08-29T04:35:52.791Z,3.70
2022-08-29T04:38:20.170Z,4.47
2022-08-29T04:40:47.500Z,2.33
2022-08-29T04:43:14.860Z,2.90
2022-08-29T04:45:42.071Z,2.60
2022-08-29T04:48:10.852Z,3.90
2022-08-29T04:50:38.169Z,4.57
2022-08-29T04:53:05.119Z,4.20
2022-08-29T04:55:33.095Z,4.27
2022-08-29T04:58:00.212Z,4.00
2022-08-29T05:00:30.329Z,3.40
2022-08-29T05:02:58.018Z,5.03
2022-08-29T05:05:25.269Z,3.87
2022-08-29T05:07:52.362Z,3.13
2022-08-29T05:10:22.542Z,2.93
2022-08-29T05:12:50.033Z,3.57
2022-08-29T05:15:17.781Z,3.97
2022-08-29T05:17:44.856Z,3.07
2022-08-29T05:20:12.269Z,2.97
2022-08-29T05:22:42.111Z,2.47
2022-08-29T05:25:14.434Z,2.37
2022-08-29T05:27:44.567Z,2.37
2022-08-29T05:30:11.873Z,3.10
2022-08-29T05:32:39.255Z,3.90
2022-08-29T05:35:06.897Z,3.10
2022-08-29T05:37:34.307Z,2.93
2022-08-29T05:40:01.932Z,4.33
2022-08-29T05:42:29.503Z,2.53
2022-08-29T05:44:56.845Z,3.80
2022-08-29T05:47:24.021Z,2.37
2022-08-29T05:49:51.089Z,1.63
2022-08-29T05:52:20.383Z,2.30
2022-08-29T05:54:48.112Z,1.83
2022-08-29T05:57:20.008Z,2.80
2022-08-29T05:59:52.215Z,3.00
2022-08-29T06:02:20.964Z,2.87
2022-08-29T06:04:48.517Z,3.10
2022-08-29T06:07:16.299Z,5.47
2022-08-29T06:09:44.680Z,3.40
2022-08-29T06:12:17.171Z,4.43
2022-08-29T06:14:50.529Z,3.97
2022-08-29T06:17:18.587Z,3.13
2022-08-29T06:19:46.228Z,4.63
2022-08-29T06:22:13.701Z,3.40
2022-08-29T06:24:44.438Z,3.00
2022-08-29T06:27:13.312Z,2.77
2022-08-29T06:29:43.018Z,3.33
2022-08-29T06:32:10.767Z,4.80
2022-08-29T06:34:38.102Z,3.77
2022-08-29T06:37:05.179Z,3.83
2022-08-29T06:39:32.182Z,3.03
2022-08-29T06:41:59.523Z,3.10
2022-08-29T06:44:30.655Z,3.10
2022-08-29T06:46:58.536Z,2.57
2022-08-29T06:49:27.599Z,2.50
2022-08-29T06:51:58.026Z,2.03
2022-08-29T06:54:28.622Z,2.67
2022-08-29T06:56:56.924Z,3.70
2022-08-29T06:59:24.467Z,2.53
2022-08-29T07:01:52.306Z,1.90
2022-08-29T07:04:39.826Z,2.77
2022-08-29T07:07:10.662Z,3.70
2022-08-29T07:09:38.124Z,3.10
2022-08-29T07:12:06.451Z,4.17
2022-08-29T07:14:36.435Z,3.93
2022-08-29T07:17:04.097Z,3.43
2022-08-29T07:19:31.239Z,3.30
2022-08-29T07:21:59.748Z,2.70
2022-08-29T07:24:28.428Z,3.10
2022-08-29T07:26:55.748Z,3.70
2022-08-29T07:29:26.194Z,3.20
2022-08-29T07:31:54.039Z,4.47
2022-08-29T07:34:24.363Z,4.03
2022-08-29T07:36:52.142Z,3.63
2022-08-29T07:39:19.996Z,4.30
2022-08-29T07:41:48.410Z,4.07
2022-08-29T07:44:17.202Z,4.10
2022-08-29T07:46:44.978Z,3.13
2022-08-29T07:49:12.573Z,4.33
2022-08-29T07:51:44.555Z,4.90
2022-08-29T07:54:16.618Z,4.13
2022-08-29T07:56:43.779Z,4.60
2022-08-29T07:59:10.909Z,6.00
2022-08-29T08:01:38.322Z,4.40
2022-08-29T08:04:05.986Z,4.80
2022-08-29T08:06:34.744Z,4.87
2022-08-29T08:09:03.854Z,3.30
2022-08-29T08:11:30.898Z,3.93
2022-08-29T08:13:58.028Z,4.40
2022-08-29T08:16:27.834Z,3.33
2022-08-29T08:18:56.262Z,4.27
2022-08-29T08:21:25.074Z,4.53
2022-08-29T08:23:52.978Z,3.70
2022-08-29T08:26:20.946Z,4.23
2022-08-29T08:28:48.218Z,4.07
2022-08-29T08:31:17.032Z,3.33
2022-08-29T08:33:45.282Z,3.87
2022-08-29T08:36:17.015Z,4.03
2022-08-29T08:38:44.975Z,4.57
2022-08-29T08:41:27.561Z,4.87
2022-08-29T08:43:54.684Z,4.90
2022-08-29T08:46:43.187Z,4.10
2022-08-29T08:49:24.520Z,4.17
2022-08-29T08:52:01.991Z,4.77
2022-08-29T08:54:36.717Z,4.60
2022-08-29T08:57:12.643Z,4.50
2022-08-29T08:59:44.106Z,1.37
2022-08-29T09:02:35.480Z,5.00
2022-08-29T09:05:20.854Z,4.47
2022-08-29T09:08:16.084Z,7.00
2022-08-29T09:11:13.227Z,6.90
2022-08-29T09:14:08.434Z,5.50
2022-08-29T09:16:46.293Z,7.10
2022-08-29T09:19:17.231Z,4.73
2022-08-29T09:21:52.852Z,5.70
2022-08-29T09:24:36.623Z,6.80
2022-08-29T09:27:04.159Z,4.97
2022-08-29T09:29:31.275Z,5.50
2022-08-29T09:32:11.971Z,4.77
2022-08-29T09:35:07.350Z,5.17
2022-08-29T09:37:35.411Z,3.93
2022-08-29T09:40:16.859Z,4.60
2022-08-29T09:42:59.813Z,4.40
2022-08-29T09:45:27.055Z,5.10
2022-08-29T09:48:17.522Z,5.70
2022-08-29T09:50:45.280Z,6.20
2022-08-29T09:53:24.206Z,6.03
2022-08-29T09:55:53.213Z,7.70
2022-08-29T09:58:20.246Z,8.43
2022-08-29T10:01:06.536Z,6.47
2022-08-29T10:03:43.617Z,5.90
2022-08-29T10:06:23.140Z,5.37
2022-08-29T10:09:13.023Z,7.80
2022-08-29T10:11:54.271Z,7.03
2022-08-29T10:14:49.997Z,7.60
2022-08-29T10:17:55.870Z,7.70
2022-08-29T10:20:46.886Z,5.07
2022-08-29T10:23:27.861Z,6.70
2022-08-29T10:25:57.507Z,6.23
2022-08-29T10:28:43.272Z,9.77
2022-08-29T10:31:19.798Z,6.60
2022-08-29T10:34:02.396Z,8.30
2022-08-29T10:36:39.014Z,7.37
2022-08-29T10:39:24.329Z,8.43
2022-08-29T10:41:59.806Z,8.27
2022-08-29T10:44:43.004Z,7.17
2022-08-29T10:47:40.171Z,6.60
2022-08-29T10:50:43.677Z,8.20
2022-08-29T10:53:25.739Z,5.03
2022-08-29T10:55:57.822Z,8.60
2022-08-29T10:59:01.460Z,7.27
2022-08-29T11:01:42.560Z,7.73
2022-08-29T11:04:36.743Z,5.50
2022-08-29T11:07:09.637Z,7.33
2022-08-29T11:09:47.642Z,5.20
2022-08-29T11:12:19.707Z,7.37
2022-08-29T11:14:58.977Z,11.23
2022-08-29T11:17:32.471Z,5.77
2022-08-29T11:20:19.826Z,10.40
2022-08-29T11:22:58.105Z,7.80
2022-08-29T11:25:25.136Z,7.90
2022-08-29T11:28:00.998Z,7.43
2022-08-29T11:30:48.129Z,5.27
2022-08-29T11:33:45.686Z,8.50
2022-08-29T11:36:19.150Z,9.00
2022-08-29T11:39:09.808Z,10.87
2022-08-29T11:41:47.471Z,7.63
2022-08-29T11:44:33.909Z,9.13
2022-08-29T11:47:02.026Z,11.37
2022-08-29T11:49:51.142Z,9.13
2022-08-29T11:52:25.975Z,10.20
2022-08-29T11:55:22.133Z,10.30
2022-08-29T11:57:53.288Z,8.63
2022-08-29T12:00:57.001Z,5.60
2022-08-29T12:03:36.870Z,11.10
2022-08-29T12:06:25.736Z,9.97
2022-08-29T12:09:13.594Z,8.53
2022-08-29T12:12:02.509Z,8.70
2022-08-29T12:14:44.170Z,7.67
2022-08-29T12:17:58.257Z,7.53
2022-08-29T12:20:44.378Z,6.70
2022-08-29T12:23:11.482Z,8.00
2022-08-29T12:25:55.259Z,7.70
2022-08-29T12:29:00.389Z,7.00
2022-08-29T12:32:18.775Z,7.20
2022-08-29T12:35:20.406Z,8.50
2022-08-29T12:38:23.858Z,8.53
2022-08-29T12:41:31.398Z,5.73
2022-08-29T12:44:04.118Z,5.00
2022-08-29T12:46:42.782Z,5.53
2022-08-29T12:49:22.159Z,7.43
2022-08-29T12:51:59.330Z,4.60
2022-08-29T12:54:36.482Z,4.33
2022-08-29T12:57:06.814Z,5.60
2022-08-29T12:59:35.062Z,5.03
2022-08-29T13:02:02.373Z,4.23
2022-08-29T13:04:36.326Z,3.57
2022-08-29T13:07:08.858Z,3.87
2022-08-29T13:09:49.081Z,3.40
2022-08-29T13:12:17.693Z,3.80
2022-08-29T13:14:58.390Z,3.73
2022-08-29T13:17:35.734Z,2.90
2022-08-29T13:20:40.459Z,3.80
2022-08-29T13:23:17.901Z,2.90
2022-08-29T13:25:49.231Z,4.80
2022-08-29T13:28:22.719Z,4.77
2022-08-29T13:31:15.888Z,4.83
2022-08-29T13:33:46.022Z,4.97
2022-08-29T13:36:28.517Z,3.90
2022-08-29T13:39:17.330Z,3.40
2022-08-29T13:42:30.533Z,5.13
2022-08-29T13:45:07.131Z,5.30
2022-08-29T13:47:45.540Z,5.80
2022-08-29T13:50:13.357Z,5.20
2022-08-29T13:52:40.427Z,6.50
2022-08-29T13:55:09.888Z,4.17
2022-08-29T13:57:40.693Z,4.60
2022-08-29T14:00:09.605Z,4.30
2022-08-29T14:02:44.636Z,4.90
2022-08-29T14:05:13.658Z,4.70
2022-08-29T14:07:43.145Z,4.77
2022-08-29T14:10:11.724Z,4.60
2022-08-29T14:12:38.713Z,4.80
2022-08-29T14:15:09.669Z,3.70
2022-08-29T14:17:40.407Z,4.20
2022-08-29T14:20:09.788Z,3.90
2022-08-29T14:22:37.272Z,3.33
2022-08-29T14:25:06.341Z,3.90
2022-08-29T14:27:33.402Z,3.10
2022-08-29T14:30:00.567Z,4.80
2022-08-29T14:32:30.070Z,5.73
2022-08-29T14:34:56.976Z,5.47
2022-08-29T14:37:24.154Z,3.10
2022-08-29T14:39:51.990Z,3.23
2022-08-29T14:42:20.060Z,2.77
2022-08-29T14:44:46.960Z,3.73
2022-08-29T14:47:14.029Z,4.17
2022-08-29T14:49:41.388Z,3.83
2022-08-29T14:52:08.531Z,4.17
2022-08-29T14:54:35.795Z,2.97
2022-08-29T14:57:02.781Z,4.40
2022-08-29T14:59:29.700Z,3.90
2022-08-29T15:01:56.674Z,3.93
2022-08-29T15:04:36.736Z,4.80
2022-08-29T15:07:11.799Z,3.93
2022-08-29T15:09:39.500Z,4.20
2022-08-29T15:12:06.734Z,4.90
2022-08-29T15:14:34.570Z,4.20
2022-08-29T15:17:02.311Z,5.20
2022-08-29T15:22:16.890Z,3.63
2022-08-29T15:24:44.180Z,3.90
2022-08-29T15:27:11.991Z,3.97
2022-08-29T15:29:42.095Z,4.40
2022-08-29T15:32:10.896Z,4.83
2022-08-29T15:34:39.393Z,3.37
2022-08-29T15:37:07.476Z,4.67
2022-08-29T15:39:34.494Z,3.37
2022-08-29T15:42:04.613Z,4.00
2022-08-29T15:44:31.513Z,2.60
2022-08-29T15:46:58.745Z,3.63
2022-08-29T15:49:26.402Z,3.90
2022-08-29T15:51:54.391Z,5.53
2022-08-29T15:54:23.295Z,4.27
2022-08-29T15:56:50.679Z,4.20
2022-08-29T15:59:19.030Z,4.57
2022-08-29T16:01:52.243Z,4.43
2022-08-29T16:04:22.241Z,4.97
2022-08-29T16:06:50.779Z,4.73
2022-08-29T16:09:18.771Z,6.10
2022-08-29T16:11:47.850Z,4.80
2022-08-29T16:17:03.795Z,4.30
2022-08-29T16:19:30.771Z,4.23
2022-08-29T16:22:00.451Z,6.00
2022-08-29T16:24:29.831Z,3.13
2022-08-29T16:26:58.319Z,5.10
2022-08-29T16:29:26.466Z,4.67
2022-08-29T16:31:57.749Z,5.43
2022-08-29T16:34:26.756Z,4.13
2022-08-29T16:36:58.950Z,5.73
2022-08-29T16:39:26.689Z,5.03
2022-08-29T16:41:53.825Z,5.63
2022-08-29T16:44:21.422Z,4.30
2022-08-29T16:46:48.508Z,4.50
2022-08-29T16:49:15.922Z,4.40
2022-08-29T16:51:42.891Z,4.70
2022-08-29T16:54:12.035Z,6.67
2022-08-29T16:56:39.667Z,5.57
2022-08-29T16:59:07.538Z,5.77
2022-08-29T17:01:41.008Z,3.87
2022-08-29T17:04:10.723Z,3.23
2022-08-29T17:06:39.698Z,4.23
2022-08-29T17:09:08.949Z,3.67
2022-08-29T17:11:37.612Z,3.03
2022-08-29T17:14:05.499Z,3.03
2022-08-29T17:16:32.588Z,2.70
2022-08-29T17:18:59.937Z,3.43
2022-08-29T17:21:27.202Z,3.90
2022-08-29T17:23:55.330Z,3.87
2022-08-29T17:26:23.470Z,3.40
2022-08-29T17:28:51.244Z,2.93
2022-08-29T17:31:18.279Z,3.67
2022-08-29T17:33:46.341Z,3.93
2022-08-29T17:36:13.452Z,4.30
2022-08-29T17:38:45.636Z,3.50
2022-08-29T17:41:17.111Z,4.23
2022-08-29T17:43:46.508Z,2.97
2022-08-29T17:46:13.850Z,2.40
2022-08-29T17:48:41.030Z,3.17
2022-08-29T17:51:08.035Z,3.73
2022-08-29T17:53:35.724Z,2.80
2022-08-29T17:56:21.220Z,2.37
2022-08-29T17:58:48.173Z,1.93
2022-08-29T18:01:16.906Z,3.13
2022-08-29T18:03:45.500Z,2.23
2022-08-29T18:06:14.619Z,3.50
2022-08-29T18:08:47.850Z,2.83
2022-08-29T18:11:16.522Z,3.20
2022-08-29T18:13:44.517Z,3.07
2022-08-29T18:16:12.192Z,3.20
2022-08-29T18:18:39.316Z,2.80
2022-08-29T18:21:09.231Z,3.67
2022-08-29T18:23:36.775Z,2.90
2022-08-29T18:26:05.102Z,2.53
2022-08-29T18:28:32.560Z,2.30
2022-08-29T18:31:00.071Z,2.20
2022-08-29T18:33:38.822Z,2.80
2022-08-29T18:36:12.282Z,4.70
2022-08-29T18:38:39.702Z,3.60
2022-08-29T18:41:07.119Z,3.47
2022-08-29T18:43:34.566Z,3.93
2022-08-29T18:46:03.749Z,3.90
2022-08-29T18:48:32.068Z,4.27
2022-08-29T18:50:59.748Z,4.90
2022-08-29T18:53:28.904Z,3.83
2022-08-29T18:55:56.750Z,3.30
2022-08-29T18:58:26.566Z,2.73
2022-08-29T19:00:54.115Z,2.80
2022-08-29T19:03:21.810Z,3.00
2022-08-29T19:05:51.786Z,2.47
2022-08-29T19:08:21.985Z,2.70
2022-08-29T19:10:49.390Z,2.77
2022-08-29T19:13:20.742Z,3.13
2022-08-29T19:15:48.723Z,3.13
2022-08-29T19:18:16.614Z,2.87
2022-08-29T19:21:02.395Z,4.10
2022-08-29T19:23:41.088Z,2.10
2022-08-29T19:26:14.283Z,2.80
2022-08-29T19:28:42.185Z,2.30
2022-08-29T19:31:09.720Z,3.17
2022-08-29T19:33:37.425Z,3.10
2022-08-29T19:36:08.013Z,1.83
2022-08-29T19:38:36.493Z,2.70
2022-08-29T19:41:05.515Z,2.73
2022-08-29T19:43:34.068Z,3.73
2022-08-29T19:46:02.927Z,2.27
2022-08-29T19:48:30.252Z,2.40
2022-08-29T19:50:57.358Z,2.47
2022-08-29T19:53:26.145Z,2.10
2022-08-29T19:55:56.897Z,1.80
2022-08-29T19:58:31.939Z,2.50
2022-08-29T20:01:04.914Z,2.03
2022-08-29T20:03:34.827Z,2.43
2022-08-29T20:06:06.207Z,2.60
2022-08-29T20:08:41.378Z,2.83
2022-08-29T20:11:14.136Z,2.70
2022-08-29T20:13:50.524Z,2.47
2022-08-29T20:16:22.298Z,2.50
2022-08-29T20:18:51.075Z,1.40
2022-08-29T20:21:19.459Z,1.93
2022-08-29T20:23:49.660Z,1.70
2022-08-29T20:26:19.909Z,2.37
2022-08-29T20:28:49.175Z,1.90
2022-08-29T20:31:16.298Z,1.67
2022-08-29T20:33:48.760Z,1.93
2022-08-29T20:36:39.143Z,2.70
2022-08-29T20:39:10.275Z,2.20
2022-08-29T20:41:37.753Z,2.13
2022-08-29T20:44:10.504Z,1.87
2022-08-29T20:46:40.496Z,2.50
2022-08-29T20:49:09.400Z,2.30
2022-08-29T20:51:37.408Z,1.80
2022-08-29T20:54:05.162Z,1.80
2022-08-29T20:56:32.819Z,2.63
2022-08-29T20:58:59.751Z,1.83
2022-08-29T21:01:27.985Z,1.97
2022-08-29T21:04:13.775Z,1.43
2022-08-29T21:06:40.780Z,1.47
2022-08-29T21:09:08.049Z,2.37
2022-08-29T21:11:35.230Z,2.10
2022-08-29T21:14:02.191Z,2.40
2022-08-29T21:16:29.510Z,1.70
2022-08-29T21:18:56.553Z,1.93
2022-08-29T21:21:25.068Z,1.67
2022-08-29T21:23:53.026Z,1.97
2022-08-29T21:26:20.543Z,1.97
2022-08-29T21:28:47.526Z,2.90
2022-08-29T21:31:15.532Z,1.87
2022-08-29T21:33:45.010Z,1.63
2022-08-29T21:36:22.632Z,1.63
2022-08-29T21:38:54.165Z,1.97
2022-08-29T21:41:21.948Z,2.43
2022-08-29T21:43:48.898Z,2.03
2022-08-29T21:46:25.049Z,2.53
2022-08-29T21:48:56.599Z,2.90
2022-08-29T21:51:24.783Z,2.60
2022-08-29T21:53:53.413Z,2.57
2022-08-29T21:56:20.498Z,2.97
2022-08-29T21:58:51.456Z,1.90
2022-08-29T22:01:21.081Z,3.30
2022-08-29T22:03:50.610Z,3.70
2022-08-29T22:06:18.114Z,3.57
2022-08-29T22:08:46.126Z,3.53
2022-08-29T22:11:22.744Z,2.70
2022-08-29T22:13:52.518Z,3.10
2022-08-29T22:16:29.693Z,2.70
2022-08-29T22:19:07.648Z,2.87
2022-08-29T22:21:44.759Z,2.40
2022-08-29T22:24:13.234Z,2.97
2022-08-29T22:26:41.015Z,3.10
2022-08-29T22:29:11.734Z,2.80
2022-08-29T22:31:39.445Z,3.10
2022-08-29T22:34:10.205Z,2.30
2022-08-29T22:36:37.053Z,2.23
2022-08-29T22:39:04.536Z,3.30
2022-08-29T22:41:31.581Z,4.50
2022-08-29T22:46:48.149Z,4.20
2022-08-29T22:49:15.056Z,3.07
2022-08-29T22:51:41.952Z,4.10
2022-08-29T22:54:27.270Z,3.07
2022-08-29T22:56:54.610Z,2.70
2022-08-29T22:59:22.287Z,3.27
2022-08-29T23:01:49.330Z,2.23
2022-08-29T23:04:16.337Z,1.70
2022-08-29T23:06:43.644Z,2.43
2022-08-29T23:09:11.092Z,1.87
2022-08-29T23:11:38.326Z,1.73
2022-08-29T23:14:06.023Z,1.40
2022-08-29T23:16:33.689Z,2.40
2022-08-29T23:19:01.770Z,1.83
2022-08-29T23:21:30.182Z,0.93
2022-08-29T23:23:58.177Z,1.93
2022-08-29T23:26:25.524Z,2.53
2022-08-29T23:28:53.101Z,2.23
2022-08-29T23:31:21.946Z,3.20
2022-08-29T23:33:49.642Z,2.97
2022-08-29T23:36:16.669Z,2.07
2022-08-29T23:38:43.839Z,2.00
2022-08-29T23:41:11.742Z,1.50
2022-08-29T23:43:38.956Z,1.47
2022-08-29T23:46:06.108Z,1.57
2022-08-29T23:48:33.461Z,2.00
2022-08-29T23:51:04.492Z,2.27
2022-08-29T23:53:31.592Z,1.83
2022-08-29T23:55:58.593Z,3.13
2022-08-29T23:58:25.492Z,2.03
